Acton, California
Current Conditions -  °F | °C
As of 5:53 PM on Friday 24 Oct 2014 (Local Time) from KPMD Reporting Station
Clear Clear  
Wind Chill: 27°   Ceiling: Unl
Heat Index: 27°   Visibility: 10mi
Dew Point: -2°   Wind: 18mph
Humidity: 15%   Direction: 220°SW
Pressure: 29.98"   Gusts: NA
Location:  34.47°N, 118.2°W
Report Text: KPMD 250053Z 22016KT 10SM CLR 27/M02 A2998 RMK AO2 SLP132 T02671017
Loading
Personal Weather Stations






























Interactive Weather Map
Tropical Storm Tracking
New forecast layout! Learn more

10-Day Weather Forecast

Advertisements
Track Severe Weather on mobile